sensor_id;sensor_type;location;lat;lon;timestamp;P1;durP1;ratioP1;P2;durP2;ratioP2
53971;SDS011;40530;53.062;6.078;2023-04-28T00:00:53;8.60;;;5.68;;
53971;SDS011;40530;53.062;6.078;2023-04-28T00:03:19;11.82;;;6.05;;
53971;SDS011;40530;53.062;6.078;2023-04-28T00:05:45;10.23;;;5.63;;
53971;SDS011;40530;53.062;6.078;2023-04-28T00:08:13;9.27;;;5.65;;
53971;SDS011;40530;53.062;6.078;2023-04-28T00:10:39;9.68;;;5.80;;
53971;SDS011;40530;53.062;6.078;2023-04-28T00:13:06;10.20;;;5.55;;
53971;SDS011;40530;53.062;6.078;2023-04-28T00:15:33;8.80;;;5.25;;
53971;SDS011;40530;53.062;6.078;2023-04-28T00:17:59;9.48;;;5.65;;
53971;SDS011;40530;53.062;6.078;2023-04-28T00:20:25;8.70;;;4.90;;
53971;SDS011;40530;53.062;6.078;2023-04-28T00:22:51;9.65;;;5.68;;
53971;SDS011;40530;53.062;6.078;2023-04-28T00:25:18;8.90;;;5.45;;
53971;SDS011;40530;53.062;6.078;2023-04-28T00:27:44;9.50;;;5.60;;
53971;SDS011;40530;53.062;6.078;2023-04-28T00:30:10;9.00;;;5.00;;
53971;SDS011;40530;53.062;6.078;2023-04-28T00:32:36;8.75;;;5.53;;
53971;SDS011;40530;53.062;6.078;2023-04-28T00:35:03;12.60;;;5.03;;
53971;SDS011;40530;53.062;6.078;2023-04-28T00:37:29;10.77;;;5.47;;
53971;SDS011;40530;53.062;6.078;2023-04-28T00:39:56;7.22;;;5.40;;
53971;SDS011;40530;53.062;6.078;2023-04-28T00:42:22;9.65;;;5.15;;
53971;SDS011;40530;53.062;6.078;2023-04-28T00:44:48;12.32;;;5.15;;
53971;SDS011;40530;53.062;6.078;2023-04-28T00:47:15;9.48;;;5.38;;
53971;SDS011;40530;53.062;6.078;2023-04-28T00:49:42;10.18;;;5.38;;
53971;SDS011;40530;53.062;6.078;2023-04-28T00:52:08;8.52;;;5.07;;
53971;SDS011;40530;53.062;6.078;2023-04-28T00:54:35;7.13;;;5.18;;
53971;SDS011;40530;53.062;6.078;2023-04-28T00:57:01;11.30;;;4.70;;
53971;SDS011;40530;53.062;6.078;2023-04-28T00:59:28;9.88;;;5.28;;
53971;SDS011;40530;53.062;6.078;2023-04-28T01:01:55;7.53;;;4.53;;
53971;SDS011;40530;53.062;6.078;2023-04-28T01:04:21;13.63;;;5.60;;
53971;SDS011;40530;53.062;6.078;2023-04-28T01:06:48;12.05;;;4.82;;
53971;SDS011;40530;53.062;6.078;2023-04-28T01:09:15;7.60;;;5.22;;
53971;SDS011;40530;53.062;6.078;2023-04-28T01:11:41;7.30;;;5.10;;
53971;SDS011;40530;53.062;6.078;2023-04-28T01:14:07;8.98;;;5.30;;
53971;SDS011;40530;53.062;6.078;2023-04-28T01:16:33;12.13;;;6.07;;
53971;SDS011;40530;53.062;6.078;2023-04-28T01:18:59;6.65;;;5.30;;
53971;SDS011;40530;53.062;6.078;2023-04-28T01:21:32;8.57;;;5.45;;
53971;SDS011;40530;53.062;6.078;2023-04-28T01:23:59;7.15;;;5.15;;
53971;SDS011;40530;53.062;6.078;2023-04-28T01:26:25;7.07;;;5.47;;
53971;SDS011;40530;53.062;6.078;2023-04-28T01:28:51;10.88;;;6.03;;
53971;SDS011;40530;53.062;6.078;2023-04-28T01:31:17;7.55;;;5.60;;
53971;SDS011;40530;53.062;6.078;2023-04-28T01:33:44;9.73;;;6.03;;
53971;SDS011;40530;53.062;6.078;2023-04-28T01:36:10;9.73;;;6.43;;
53971;SDS011;40530;53.062;6.078;2023-04-28T01:38:36;13.57;;;6.45;;
53971;SDS011;40530;53.062;6.078;2023-04-28T01:41:02;8.68;;;5.55;;
53971;SDS011;40530;53.062;6.078;2023-04-28T01:43:28;8.98;;;5.75;;
53971;SDS011;40530;53.062;6.078;2023-04-28T01:45:54;15.50;;;7.68;;
53971;SDS011;40530;53.062;6.078;2023-04-28T01:48:20;8.27;;;5.45;;
53971;SDS011;40530;53.062;6.078;2023-04-28T01:50:46;7.38;;;6.18;;
53971;SDS011;40530;53.062;6.078;2023-04-28T01:53:13;8.57;;;5.65;;
53971;SDS011;40530;53.062;6.078;2023-04-28T01:55:39;7.35;;;4.85;;
53971;SDS011;40530;53.062;6.078;2023-04-28T01:58:05;10.40;;;5.90;;
53971;SDS011;40530;53.062;6.078;2023-04-28T02:00:31;10.60;;;6.38;;
53971;SDS011;40530;53.062;6.078;2023-04-28T02:02:57;10.73;;;6.40;;
53971;SDS011;40530;53.062;6.078;2023-04-28T02:05:23;12.18;;;6.93;;
53971;SDS011;40530;53.062;6.078;2023-04-28T02:07:50;11.23;;;6.63;;
53971;SDS011;40530;53.062;6.078;2023-04-28T02:10:16;11.73;;;6.10;;
53971;SDS011;40530;53.062;6.078;2023-04-28T02:12:42;12.15;;;6.57;;
53971;SDS011;40530;53.062;6.078;2023-04-28T02:15:08;12.75;;;6.68;;
53971;SDS011;40530;53.062;6.078;2023-04-28T02:17:34;9.52;;;5.75;;
53971;SDS011;40530;53.062;6.078;2023-04-28T02:20:00;11.70;;;6.30;;
53971;SDS011;40530;53.062;6.078;2023-04-28T02:22:27;11.02;;;6.38;;
53971;SDS011;40530;53.062;6.078;2023-04-28T02:24:53;10.88;;;6.90;;
53971;SDS011;40530;53.062;6.078;2023-04-28T02:27:19;9.65;;;6.32;;
53971;SDS011;40530;53.062;6.078;2023-04-28T02:29:45;12.98;;;7.05;;
53971;SDS011;40530;53.062;6.078;2023-04-28T02:32:11;8.63;;;6.43;;
53971;SDS011;40530;53.062;6.078;2023-04-28T02:34:37;12.10;;;7.22;;
53971;SDS011;40530;53.062;6.078;2023-04-28T02:37:03;9.30;;;6.28;;
53971;SDS011;40530;53.062;6.078;2023-04-28T02:39:30;16.67;;;8.70;;
53971;SDS011;40530;53.062;6.078;2023-04-28T02:41:58;10.68;;;7.30;;
53971;SDS011;40530;53.062;6.078;2023-04-28T02:44:24;13.15;;;6.80;;
53971;SDS011;40530;53.062;6.078;2023-04-28T02:46:50;14.07;;;7.13;;
53971;SDS011;40530;53.062;6.078;2023-04-28T02:49:17;11.63;;;8.02;;
53971;SDS011;40530;53.062;6.078;2023-04-28T02:51:43;15.73;;;7.65;;
53971;SDS011;40530;53.062;6.078;2023-04-28T02:54:09;12.65;;;7.43;;
53971;SDS011;40530;53.062;6.078;2023-04-28T02:56:35;9.60;;;8.20;;
53971;SDS011;40530;53.062;6.078;2023-04-28T02:59:01;9.07;;;7.57;;
53971;SDS011;40530;53.062;6.078;2023-04-28T03:01:27;10.02;;;7.53;;
53971;SDS011;40530;53.062;6.078;2023-04-28T03:03:54;14.32;;;7.57;;
53971;SDS011;40530;53.062;6.078;2023-04-28T03:06:20;10.57;;;8.02;;
53971;SDS011;40530;53.062;6.078;2023-04-28T03:08:46;9.90;;;7.85;;
53971;SDS011;40530;53.062;6.078;2023-04-28T03:11:12;12.50;;;8.23;;
53971;SDS011;40530;53.062;6.078;2023-04-28T03:13:38;11.82;;;8.80;;
53971;SDS011;40530;53.062;6.078;2023-04-28T03:16:04;15.15;;;8.23;;
53971;SDS011;40530;53.062;6.078;2023-04-28T03:18:31;13.07;;;8.82;;
53971;SDS011;40530;53.062;6.078;2023-04-28T03:20:57;10.82;;;8.00;;
53971;SDS011;40530;53.062;6.078;2023-04-28T03:23:24;12.02;;;8.65;;
53971;SDS011;40530;53.062;6.078;2023-04-28T03:25:50;13.52;;;8.13;;
53971;SDS011;40530;53.062;6.078;2023-04-28T03:28:16;11.02;;;8.15;;
53971;SDS011;40530;53.062;6.078;2023-04-28T03:30:42;14.85;;;8.00;;
53971;SDS011;40530;53.062;6.078;2023-04-28T03:33:08;18.00;;;9.05;;
53971;SDS011;40530;53.062;6.078;2023-04-28T03:35:34;14.23;;;9.18;;
53971;SDS011;40530;53.062;6.078;2023-04-28T03:38:00;17.58;;;8.88;;
53971;SDS011;40530;53.062;6.078;2023-04-28T03:40:27;12.63;;;9.38;;
53971;SDS011;40530;53.062;6.078;2023-04-28T03:42:53;14.00;;;8.88;;
53971;SDS011;40530;53.062;6.078;2023-04-28T03:45:19;11.30;;;9.07;;
53971;SDS011;40530;53.062;6.078;2023-04-28T03:47:45;11.38;;;8.57;;
53971;SDS011;40530;53.062;6.078;2023-04-28T03:50:11;14.57;;;8.85;;
53971;SDS011;40530;53.062;6.078;2023-04-28T03:52:37;17.75;;;10.18;;
53971;SDS011;40530;53.062;6.078;2023-04-28T03:55:03;16.08;;;10.15;;
53971;SDS011;40530;53.062;6.078;2023-04-28T03:57:29;18.48;;;10.10;;
53971;SDS011;40530;53.062;6.078;2023-04-28T03:59:55;17.33;;;10.52;;
53971;SDS011;40530;53.062;6.078;2023-04-28T04:02:21;16.00;;;10.38;;
53971;SDS011;40530;53.062;6.078;2023-04-28T04:04:47;12.35;;;9.80;;
53971;SDS011;40530;53.062;6.078;2023-04-28T04:07:13;15.32;;;9.85;;
53971;SDS011;40530;53.062;6.078;2023-04-28T04:09:39;18.85;;;9.85;;
53971;SDS011;40530;53.062;6.078;2023-04-28T04:12:08;15.48;;;10.02;;
53971;SDS011;40530;53.062;6.078;2023-04-28T04:14:35;18.27;;;10.63;;
53971;SDS011;40530;53.062;6.078;2023-04-28T04:17:01;17.00;;;10.93;;
53971;SDS011;40530;53.062;6.078;2023-04-28T04:19:28;13.15;;;9.98;;
53971;SDS011;40530;53.062;6.078;2023-04-28T04:21:54;15.73;;;10.77;;
53971;SDS011;40530;53.062;6.078;2023-04-28T04:24:20;20.15;;;11.63;;
53971;SDS011;40530;53.062;6.078;2023-04-28T04:26:46;15.52;;;11.82;;
53971;SDS011;40530;53.062;6.078;2023-04-28T04:29:12;17.20;;;11.23;;
53971;SDS011;40530;53.062;6.078;2023-04-28T04:31:38;15.90;;;10.05;;
53971;SDS011;40530;53.062;6.078;2023-04-28T04:34:04;16.45;;;11.98;;
53971;SDS011;40530;53.062;6.078;2023-04-28T04:36:31;20.00;;;11.05;;
53971;SDS011;40530;53.062;6.078;2023-04-28T04:38:57;18.92;;;10.82;;
53971;SDS011;40530;53.062;6.078;2023-04-28T04:41:24;17.30;;;12.82;;
53971;SDS011;40530;53.062;6.078;2023-04-28T04:43:51;31.92;;;19.70;;
53971;SDS011;40530;53.062;6.078;2023-04-28T04:46:17;20.92;;;13.45;;
53971;SDS011;40530;53.062;6.078;2023-04-28T04:48:43;17.50;;;11.15;;
53971;SDS011;40530;53.062;6.078;2023-04-28T04:51:09;16.20;;;11.43;;
53971;SDS011;40530;53.062;6.078;2023-04-28T04:53:35;18.80;;;10.95;;
53971;SDS011;40530;53.062;6.078;2023-04-28T04:56:01;20.17;;;10.98;;
53971;SDS011;40530;53.062;6.078;2023-04-28T04:58:28;14.40;;;11.00;;
53971;SDS011;40530;53.062;6.078;2023-04-28T05:00:54;20.75;;;11.23;;
53971;SDS011;40530;53.062;6.078;2023-04-28T05:03:21;23.85;;;10.43;;
53971;SDS011;40530;53.062;6.078;2023-04-28T05:05:47;16.20;;;11.15;;
53971;SDS011;40530;53.062;6.078;2023-04-28T05:08:13;19.23;;;11.00;;
53971;SDS011;40530;53.062;6.078;2023-04-28T05:10:41;18.30;;;11.52;;
53971;SDS011;40530;53.062;6.078;2023-04-28T05:13:07;18.83;;;12.90;;
53971;SDS011;40530;53.062;6.078;2023-04-28T05:15:33;18.13;;;11.40;;
53971;SDS011;40530;53.062;6.078;2023-04-28T05:17:59;17.70;;;11.18;;
53971;SDS011;40530;53.062;6.078;2023-04-28T05:20:30;19.08;;;11.95;;
53971;SDS011;40530;53.062;6.078;2023-04-28T05:22:56;18.15;;;11.80;;
53971;SDS011;40530;53.062;6.078;2023-04-28T05:25:22;17.40;;;12.60;;
53971;SDS011;40530;53.062;6.078;2023-04-28T05:27:49;16.52;;;11.75;;
53971;SDS011;40530;53.062;6.078;2023-04-28T05:30:15;16.50;;;11.13;;
53971;SDS011;40530;53.062;6.078;2023-04-28T05:32:41;24.23;;;14.02;;
53971;SDS011;40530;53.062;6.078;2023-04-28T05:35:07;23.38;;;13.65;;
53971;SDS011;40530;53.062;6.078;2023-04-28T05:37:33;14.80;;;10.70;;
53971;SDS011;40530;53.062;6.078;2023-04-28T05:39:59;23.92;;;12.55;;
53971;SDS011;40530;53.062;6.078;2023-04-28T05:42:26;17.38;;;11.02;;
53971;SDS011;40530;53.062;6.078;2023-04-28T05:44:52;16.63;;;11.20;;
53971;SDS011;40530;53.062;6.078;2023-04-28T05:47:18;18.25;;;12.05;;
53971;SDS011;40530;53.062;6.078;2023-04-28T05:49:44;17.25;;;12.27;;
53971;SDS011;40530;53.062;6.078;2023-04-28T05:52:10;17.20;;;11.75;;
53971;SDS011;40530;53.062;6.078;2023-04-28T05:54:36;17.50;;;11.48;;
53971;SDS011;40530;53.062;6.078;2023-04-28T05:57:02;15.88;;;11.23;;
53971;SDS011;40530;53.062;6.078;2023-04-28T05:59:31;16.67;;;11.15;;
53971;SDS011;40530;53.062;6.078;2023-04-28T06:01:57;17.45;;;10.68;;
53971;SDS011;40530;53.062;6.078;2023-04-28T06:04:23;15.95;;;11.00;;
53971;SDS011;40530;53.062;6.078;2023-04-28T06:06:49;15.60;;;10.50;;
53971;SDS011;40530;53.062;6.078;2023-04-28T06:09:16;15.45;;;10.77;;
53971;SDS011;40530;53.062;6.078;2023-04-28T06:11:42;14.95;;;11.23;;
53971;SDS011;40530;53.062;6.078;2023-04-28T06:14:09;17.95;;;11.02;;
53971;SDS011;40530;53.062;6.078;2023-04-28T06:16:35;14.60;;;10.50;;
53971;SDS011;40530;53.062;6.078;2023-04-28T06:19:01;19.40;;;10.60;;
53971;SDS011;40530;53.062;6.078;2023-04-28T06:21:28;19.35;;;12.25;;
53971;SDS011;40530;53.062;6.078;2023-04-28T06:23:56;18.10;;;11.52;;
53971;SDS011;40530;53.062;6.078;2023-04-28T06:26:22;16.23;;;10.30;;
53971;SDS011;40530;53.062;6.078;2023-04-28T06:28:49;17.92;;;11.15;;
53971;SDS011;40530;53.062;6.078;2023-04-28T06:31:15;16.17;;;10.55;;
53971;SDS011;40530;53.062;6.078;2023-04-28T06:33:41;16.38;;;11.13;;
53971;SDS011;40530;53.062;6.078;2023-04-28T06:36:07;17.27;;;10.40;;
53971;SDS011;40530;53.062;6.078;2023-04-28T06:38:33;18.88;;;11.90;;
53971;SDS011;40530;53.062;6.078;2023-04-28T06:41:00;18.05;;;10.65;;
53971;SDS011;40530;53.062;6.078;2023-04-28T06:43:27;17.58;;;10.45;;
53971;SDS011;40530;53.062;6.078;2023-04-28T06:45:53;20.40;;;11.18;;
53971;SDS011;40530;53.062;6.078;2023-04-28T06:48:19;17.08;;;11.20;;
53971;SDS011;40530;53.062;6.078;2023-04-28T06:50:45;16.15;;;10.80;;
53971;SDS011;40530;53.062;6.078;2023-04-28T06:53:11;18.42;;;10.65;;
53971;SDS011;40530;53.062;6.078;2023-04-28T06:55:37;14.85;;;10.77;;
53971;SDS011;40530;53.062;6.078;2023-04-28T06:58:03;15.77;;;10.95;;
53971;SDS011;40530;53.062;6.078;2023-04-28T07:00:29;14.45;;;10.40;;
53971;SDS011;40530;53.062;6.078;2023-04-28T07:02:55;15.02;;;10.55;;
53971;SDS011;40530;53.062;6.078;2023-04-28T07:05:21;17.10;;;11.43;;
53971;SDS011;40530;53.062;6.078;2023-04-28T07:07:48;13.05;;;9.88;;
53971;SDS011;40530;53.062;6.078;2023-04-28T07:10:14;15.05;;;10.95;;
53971;SDS011;40530;53.062;6.078;2023-04-28T07:12:40;14.95;;;10.73;;
53971;SDS011;40530;53.062;6.078;2023-04-28T07:15:06;16.60;;;10.70;;
53971;SDS011;40530;53.062;6.078;2023-04-28T07:17:33;16.38;;;10.65;;
53971;SDS011;40530;53.062;6.078;2023-04-28T07:19:59;16.13;;;11.32;;
53971;SDS011;40530;53.062;6.078;2023-04-28T07:22:25;14.55;;;11.02;;
53971;SDS011;40530;53.062;6.078;2023-04-28T07:24:51;16.95;;;10.70;;
53971;SDS011;40530;53.062;6.078;2023-04-28T07:27:17;18.35;;;11.05;;
53971;SDS011;40530;53.062;6.078;2023-04-28T07:29:47;14.07;;;10.35;;
53971;SDS011;40530;53.062;6.078;2023-04-28T07:32:13;17.83;;;12.80;;
53971;SDS011;40530;53.062;6.078;2023-04-28T07:34:39;19.95;;;12.48;;
53971;SDS011;40530;53.062;6.078;2023-04-28T07:37:05;15.50;;;10.68;;
53971;SDS011;40530;53.062;6.078;2023-04-28T07:39:32;14.25;;;10.50;;
53971;SDS011;40530;53.062;6.078;2023-04-28T07:41:59;18.00;;;10.45;;
53971;SDS011;40530;53.062;6.078;2023-04-28T07:44:26;19.08;;;10.98;;
53971;SDS011;40530;53.062;6.078;2023-04-28T07:46:53;16.73;;;11.05;;
53971;SDS011;40530;53.062;6.078;2023-04-28T07:49:19;14.90;;;9.75;;
53971;SDS011;40530;53.062;6.078;2023-04-28T07:51:45;14.85;;;11.52;;
53971;SDS011;40530;53.062;6.078;2023-04-28T07:54:11;14.13;;;10.48;;
53971;SDS011;40530;53.062;6.078;2023-04-28T07:56:37;14.23;;;10.68;;
53971;SDS011;40530;53.062;6.078;2023-04-28T07:59:07;19.63;;;12.30;;
53971;SDS011;40530;53.062;6.078;2023-04-28T08:01:33;16.63;;;11.35;;
53971;SDS011;40530;53.062;6.078;2023-04-28T08:03:59;17.92;;;12.07;;
53971;SDS011;40530;53.062;6.078;2023-04-28T08:06:25;16.98;;;11.75;;
53971;SDS011;40530;53.062;6.078;2023-04-28T08:08:51;16.90;;;12.38;;
53971;SDS011;40530;53.062;6.078;2023-04-28T08:11:18;25.38;;;13.50;;
53971;SDS011;40530;53.062;6.078;2023-04-28T08:13:45;19.50;;;12.25;;
53971;SDS011;40530;53.062;6.078;2023-04-28T08:16:11;17.42;;;12.40;;
53971;SDS011;40530;53.062;6.078;2023-04-28T08:18:37;19.92;;;13.35;;
53971;SDS011;40530;53.062;6.078;2023-04-28T08:21:03;15.90;;;12.02;;
53971;SDS011;40530;53.062;6.078;2023-04-28T08:23:30;17.55;;;12.48;;
53971;SDS011;40530;53.062;6.078;2023-04-28T08:25:56;20.92;;;13.20;;
53971;SDS011;40530;53.062;6.078;2023-04-28T08:28:22;19.90;;;11.77;;
53971;SDS011;40530;53.062;6.078;2023-04-28T08:30:48;16.88;;;12.30;;
53971;SDS011;40530;53.062;6.078;2023-04-28T08:33:14;20.13;;;12.50;;
53971;SDS011;40530;53.062;6.078;2023-04-28T08:35:40;17.48;;;11.98;;
53971;SDS011;40530;53.062;6.078;2023-04-28T08:38:06;21.75;;;11.73;;
53971;SDS011;40530;53.062;6.078;2023-04-28T08:40:37;16.83;;;11.68;;
53971;SDS011;40530;53.062;6.078;2023-04-28T08:43:03;19.02;;;11.85;;
53971;SDS011;40530;53.062;6.078;2023-04-28T08:45:30;17.98;;;11.82;;
53971;SDS011;40530;53.062;6.078;2023-04-28T08:48:05;28.38;;;16.40;;
53971;SDS011;40530;53.062;6.078;2023-04-28T08:50:32;22.95;;;13.65;;
53971;SDS011;40530;53.062;6.078;2023-04-28T08:52:59;16.88;;;11.80;;
53971;SDS011;40530;53.062;6.078;2023-04-28T08:55:28;19.70;;;11.73;;
53971;SDS011;40530;53.062;6.078;2023-04-28T08:57:55;18.35;;;11.00;;
53971;SDS011;40530;53.062;6.078;2023-04-28T09:00:21;23.05;;;12.73;;
53971;SDS011;40530;53.062;6.078;2023-04-28T09:02:48;17.15;;;12.13;;
53971;SDS011;40530;53.062;6.078;2023-04-28T09:05:14;15.43;;;10.48;;
53971;SDS011;40530;53.062;6.078;2023-04-28T09:07:44;14.82;;;11.05;;
53971;SDS011;40530;53.062;6.078;2023-04-28T09:10:15;16.23;;;11.32;;
53971;SDS011;40530;53.062;6.078;2023-04-28T09:12:45;16.77;;;10.73;;
53971;SDS011;40530;53.062;6.078;2023-04-28T09:15:24;15.27;;;10.57;;
53971;SDS011;40530;53.062;6.078;2023-04-28T09:17:51;16.73;;;11.07;;
53971;SDS011;40530;53.062;6.078;2023-04-28T09:20:24;14.98;;;10.48;;
53971;SDS011;40530;53.062;6.078;2023-04-28T09:22:51;13.65;;;10.18;;
53971;SDS011;40530;53.062;6.078;2023-04-28T09:25:17;15.10;;;10.98;;
53971;SDS011;40530;53.062;6.078;2023-04-28T09:27:45;15.18;;;10.85;;
53971;SDS011;40530;53.062;6.078;2023-04-28T09:30:11;15.52;;;10.48;;
53971;SDS011;40530;53.062;6.078;2023-04-28T09:32:37;16.27;;;9.98;;
53971;SDS011;40530;53.062;6.078;2023-04-28T09:35:04;13.00;;;10.02;;
53971;SDS011;40530;53.062;6.078;2023-04-28T09:37:31;15.13;;;9.77;;
53971;SDS011;40530;53.062;6.078;2023-04-28T09:40:07;14.32;;;10.55;;
53971;SDS011;40530;53.062;6.078;2023-04-28T09:45:18;17.42;;;11.00;;
53971;SDS011;40530;53.062;6.078;2023-04-28T09:47:45;14.20;;;10.05;;
53971;SDS011;40530;53.062;6.078;2023-04-28T09:50:13;20.33;;;13.63;;
53971;SDS011;40530;53.062;6.078;2023-04-28T09:52:41;15.93;;;10.30;;
53971;SDS011;40530;53.062;6.078;2023-04-28T09:55:09;12.98;;;9.50;;
53971;SDS011;40530;53.062;6.078;2023-04-28T09:57:36;13.52;;;8.80;;
53971;SDS011;40530;53.062;6.078;2023-04-28T10:00:03;13.93;;;8.95;;
53971;SDS011;40530;53.062;6.078;2023-04-28T10:02:30;13.30;;;8.82;;
53971;SDS011;40530;53.062;6.078;2023-04-28T10:04:56;18.92;;;9.73;;
53971;SDS011;40530;53.062;6.078;2023-04-28T10:07:22;12.43;;;9.63;;
53971;SDS011;40530;53.062;6.078;2023-04-28T10:09:49;13.18;;;9.95;;
53971;SDS011;40530;53.062;6.078;2023-04-28T10:12:16;10.80;;;8.93;;
53971;SDS011;40530;53.062;6.078;2023-04-28T10:14:42;15.73;;;9.52;;
53971;SDS011;40530;53.062;6.078;2023-04-28T10:17:09;15.32;;;9.07;;
53971;SDS011;40530;53.062;6.078;2023-04-28T10:19:35;17.40;;;9.45;;
53971;SDS011;40530;53.062;6.078;2023-04-28T10:24:28;14.43;;;9.13;;
53971;SDS011;40530;53.062;6.078;2023-04-28T10:27:05;10.55;;;8.40;;
53971;SDS011;40530;53.062;6.078;2023-04-28T10:29:32;11.48;;;9.07;;
53971;SDS011;40530;53.062;6.078;2023-04-28T10:32:14;15.68;;;9.98;;
53971;SDS011;40530;53.062;6.078;2023-04-28T10:34:40;12.75;;;8.57;;
53971;SDS011;40530;53.062;6.078;2023-04-28T10:37:07;12.15;;;8.52;;
53971;SDS011;40530;53.062;6.078;2023-04-28T10:39:33;16.40;;;8.82;;
53971;SDS011;40530;53.062;6.078;2023-04-28T10:41:59;10.65;;;8.25;;
53971;SDS011;40530;53.062;6.078;2023-04-28T10:47:04;21.05;;;14.13;;
53971;SDS011;40530;53.062;6.078;2023-04-28T11:00:34;9.73;;;8.00;;
53971;SDS011;40530;53.062;6.078;2023-04-28T11:03:00;10.10;;;7.78;;
53971;SDS011;40530;53.062;6.078;2023-04-28T11:05:26;8.68;;;7.75;;
53971;SDS011;40530;53.062;6.078;2023-04-28T11:08:30;10.52;;;7.50;;
53971;SDS011;40530;53.062;6.078;2023-04-28T11:13:44;11.23;;;7.35;;
53971;SDS011;40530;53.062;6.078;2023-04-28T11:16:13;12.52;;;7.85;;
53971;SDS011;40530;53.062;6.078;2023-04-28T11:18:50;11.15;;;7.25;;
53971;SDS011;40530;53.062;6.078;2023-04-28T11:21:20;12.93;;;8.07;;
53971;SDS011;40530;53.062;6.078;2023-04-28T11:23:46;12.75;;;7.35;;
53971;SDS011;40530;53.062;6.078;2023-04-28T11:26:12;10.20;;;7.60;;
53971;SDS011;40530;53.062;6.078;2023-04-28T11:28:45;10.50;;;7.22;;
53971;SDS011;40530;53.062;6.078;2023-04-28T11:31:16;10.90;;;6.95;;
53971;SDS011;40530;53.062;6.078;2023-04-28T11:33:52;11.88;;;8.00;;
53971;SDS011;40530;53.062;6.078;2023-04-28T11:36:23;13.32;;;7.38;;
53971;SDS011;40530;53.062;6.078;2023-04-28T11:38:49;10.50;;;7.10;;
53971;SDS011;40530;53.062;6.078;2023-04-28T11:41:15;10.27;;;7.20;;
53971;SDS011;40530;53.062;6.078;2023-04-28T11:43:41;12.15;;;7.00;;
53971;SDS011;40530;53.062;6.078;2023-04-28T11:46:07;7.30;;;6.63;;
53971;SDS011;40530;53.062;6.078;2023-04-28T11:48:33;11.13;;;7.70;;
53971;SDS011;40530;53.062;6.078;2023-04-28T11:50:59;9.13;;;7.30;;
53971;SDS011;40530;53.062;6.078;2023-04-28T11:53:44;13.65;;;7.47;;
53971;SDS011;40530;53.062;6.078;2023-04-28T11:56:10;13.35;;;7.90;;
53971;SDS011;40530;53.062;6.078;2023-04-28T11:58:37;14.57;;;7.55;;
53971;SDS011;40530;53.062;6.078;2023-04-28T12:01:10;10.82;;;8.27;;
53971;SDS011;40530;53.062;6.078;2023-04-28T12:03:44;11.15;;;7.63;;
53971;SDS011;40530;53.062;6.078;2023-04-28T12:08:41;11.68;;;8.05;;
53971;SDS011;40530;53.062;6.078;2023-04-28T12:13:34;12.05;;;9.55;;
53971;SDS011;40530;53.062;6.078;2023-04-28T12:16:01;12.60;;;8.93;;
53971;SDS011;40530;53.062;6.078;2023-04-28T12:18:28;11.10;;;8.57;;
53971;SDS011;40530;53.062;6.078;2023-04-28T12:20:54;16.00;;;9.15;;
53971;SDS011;40530;53.062;6.078;2023-04-28T12:23:32;11.23;;;9.00;;
53971;SDS011;40530;53.062;6.078;2023-04-28T12:26:01;15.07;;;8.85;;
53971;SDS011;40530;53.062;6.078;2023-04-28T12:28:37;12.40;;;8.80;;
53971;SDS011;40530;53.062;6.078;2023-04-28T12:31:04;15.05;;;9.63;;
53971;SDS011;40530;53.062;6.078;2023-04-28T12:33:31;10.98;;;8.32;;
53971;SDS011;40530;53.062;6.078;2023-04-28T12:36:06;13.48;;;8.52;;
53971;SDS011;40530;53.062;6.078;2023-04-28T12:38:32;14.27;;;9.32;;
53971;SDS011;40530;53.062;6.078;2023-04-28T12:40:58;13.63;;;9.65;;
53971;SDS011;40530;53.062;6.078;2023-04-28T12:43:24;16.30;;;9.82;;
53971;SDS011;40530;53.062;6.078;2023-04-28T12:45:53;14.88;;;10.00;;
53971;SDS011;40530;53.062;6.078;2023-04-28T12:48:20;14.25;;;10.60;;
53971;SDS011;40530;53.062;6.078;2023-04-28T12:50:51;15.65;;;11.98;;
53971;SDS011;40530;53.062;6.078;2023-04-28T12:53:17;14.70;;;11.05;;
53971;SDS011;40530;53.062;6.078;2023-04-28T12:55:43;13.57;;;11.45;;
53971;SDS011;40530;53.062;6.078;2023-04-28T12:58:09;18.40;;;11.15;;
53971;SDS011;40530;53.062;6.078;2023-04-28T13:00:35;17.77;;;12.73;;
53971;SDS011;40530;53.062;6.078;2023-04-28T13:03:01;13.25;;;11.88;;
53971;SDS011;40530;53.062;6.078;2023-04-28T13:05:27;17.70;;;13.05;;
53971;SDS011;40530;53.062;6.078;2023-04-28T13:07:53;15.30;;;13.07;;
53971;SDS011;40530;53.062;6.078;2023-04-28T13:10:19;23.92;;;14.50;;
53971;SDS011;40530;53.062;6.078;2023-04-28T13:12:47;17.40;;;15.02;;
53971;SDS011;40530;53.062;6.078;2023-04-28T13:15:13;22.70;;;16.42;;
53971;SDS011;40530;53.062;6.078;2023-04-28T13:17:39;22.52;;;16.08;;
53971;SDS011;40530;53.062;6.078;2023-04-28T13:20:05;21.27;;;15.30;;
53971;SDS011;40530;53.062;6.078;2023-04-28T13:22:32;20.27;;;15.18;;
53971;SDS011;40530;53.062;6.078;2023-04-28T13:24:58;18.95;;;15.30;;
53971;SDS011;40530;53.062;6.078;2023-04-28T13:27:24;27.17;;;15.85;;
53971;SDS011;40530;53.062;6.078;2023-04-28T13:29:50;21.65;;;16.10;;
53971;SDS011;40530;53.062;6.078;2023-04-28T13:32:16;19.25;;;16.40;;
53971;SDS011;40530;53.062;6.078;2023-04-28T13:34:42;22.58;;;16.42;;
53971;SDS011;40530;53.062;6.078;2023-04-28T13:37:08;18.58;;;14.93;;
53971;SDS011;40530;53.062;6.078;2023-04-28T13:39:35;20.52;;;16.10;;
53971;SDS011;40530;53.062;6.078;2023-04-28T13:42:01;18.13;;;15.40;;
53971;SDS011;40530;53.062;6.078;2023-04-28T13:44:27;17.45;;;15.10;;
53971;SDS011;40530;53.062;6.078;2023-04-28T13:46:53;17.77;;;15.25;;
53971;SDS011;40530;53.062;6.078;2023-04-28T13:49:19;18.83;;;15.52;;
53971;SDS011;40530;53.062;6.078;2023-04-28T13:51:46;17.30;;;14.63;;
53971;SDS011;40530;53.062;6.078;2023-04-28T13:54:12;19.05;;;15.93;;
53971;SDS011;40530;53.062;6.078;2023-04-28T13:56:38;18.63;;;15.05;;
53971;SDS011;40530;53.062;6.078;2023-04-28T13:59:04;16.60;;;14.68;;
53971;SDS011;40530;53.062;6.078;2023-04-28T14:01:31;20.02;;;17.55;;
53971;SDS011;40530;53.062;6.078;2023-04-28T14:03:57;19.27;;;17.33;;
53971;SDS011;40530;53.062;6.078;2023-04-28T14:06:23;20.30;;;17.98;;
53971;SDS011;40530;53.062;6.078;2023-04-28T14:08:50;18.15;;;16.23;;
53971;SDS011;40530;53.062;6.078;2023-04-28T14:11:16;19.05;;;17.05;;
53971;SDS011;40530;53.062;6.078;2023-04-28T14:13:42;19.88;;;17.77;;
53971;SDS011;40530;53.062;6.078;2023-04-28T14:16:08;18.63;;;16.77;;
53971;SDS011;40530;53.062;6.078;2023-04-28T14:18:34;21.25;;;18.88;;
53971;SDS011;40530;53.062;6.078;2023-04-28T14:21:00;22.65;;;20.40;;
53971;SDS011;40530;53.062;6.078;2023-04-28T14:23:27;20.92;;;18.85;;
53971;SDS011;40530;53.062;6.078;2023-04-28T14:25:53;20.73;;;18.63;;
53971;SDS011;40530;53.062;6.078;2023-04-28T14:28:20;21.80;;;19.58;;
53971;SDS011;40530;53.062;6.078;2023-04-28T14:30:47;24.50;;;21.20;;
53971;SDS011;40530;53.062;6.078;2023-04-28T14:33:14;22.90;;;20.75;;
53971;SDS011;40530;53.062;6.078;2023-04-28T14:35:40;25.02;;;21.88;;
53971;SDS011;40530;53.062;6.078;2023-04-28T14:38:06;26.27;;;23.40;;
53971;SDS011;40530;53.062;6.078;2023-04-28T14:40:33;28.10;;;24.15;;
53971;SDS011;40530;53.062;6.078;2023-04-28T14:42:59;25.58;;;22.20;;
53971;SDS011;40530;53.062;6.078;2023-04-28T14:45:25;22.75;;;20.45;;
53971;SDS011;40530;53.062;6.078;2023-04-28T14:47:51;22.55;;;20.25;;
53971;SDS011;40530;53.062;6.078;2023-04-28T14:50:17;23.98;;;21.48;;
53971;SDS011;40530;53.062;6.078;2023-04-28T14:52:43;23.35;;;20.98;;